Archival Weather

Alykel

Alykel, Russia (UOOO)

Report from: Tuesday, November 21, 2023 3:00 AM UTC
Current time: Friday, July 19, 2024 2:15 AM UTC

Current weather – Weather history – Daily summaries
Weather forecast

Present weatherLight snow
Temperature-25.0°C (-13.0°F)
Wind chill-35.0°C (-31.0°F)
Dew point-27.0°C (-16.6°F)
Winds 7.8 kts (4 m/s, 8.9 mph) South (180°)
Visibility3.7 mi. (6 km)
Clouds Ceiling: Broken clouds 2,800 ft. (853 m)
Altimeter30.12 in.Hg (1020 mB)
Precip. events QF 2:29 PM
Relative humidity83 %
Density altitude-5,405 ft. (-1,647 m)
Remarks No significant changes expected in the next two hours
Flight conditions Marginal Visual Meteorological Conditions
Raw dataUOOO 210300Z 18004MPS 6000 -SN BKN028 M25/M27 Q1020 R19/35//60 NOSIG RMK QFE749/0998
An error has occurred. This application may no longer respond until reloaded. Reload 🗙